createdAt,value
2023-04-14T00:00:36.877Z,19.39
2023-04-14T00:03:03.611Z,19.40
2023-04-14T00:05:34.647Z,19.61
2023-04-14T00:08:01.916Z,19.61
2023-04-14T00:10:28.523Z,19.56
2023-04-14T00:12:57.944Z,19.52
2023-04-14T00:15:24.491Z,19.58
2023-04-14T00:17:51.084Z,19.61
2023-04-14T00:20:17.634Z,19.59
2023-04-14T00:22:44.153Z,19.59
2023-04-14T00:25:10.741Z,19.60
2023-04-14T00:27:37.247Z,19.64
2023-04-14T00:30:04.092Z,19.68
2023-04-14T00:32:32.865Z,19.73
2023-04-14T00:35:03.143Z,19.75
2023-04-14T00:37:30.812Z,19.80
2023-04-14T00:39:59.025Z,19.76
2023-04-14T00:42:25.578Z,19.82
2023-04-14T00:44:52.366Z,19.80
2023-04-14T00:47:19.222Z,19.86
2023-04-14T00:49:45.938Z,19.85
2023-04-14T00:52:12.566Z,19.89
2023-04-14T00:54:39.592Z,19.87
2023-04-14T00:57:07.293Z,19.92
2023-04-14T00:59:33.915Z,19.93
2023-04-14T01:02:01.286Z,20.04
2023-04-14T01:04:36.846Z,20.06
2023-04-14T01:07:22.499Z,20.37
2023-04-14T01:09:49.322Z,20.16
2023-04-14T01:12:23.049Z,20.28
2023-04-14T01:14:56.147Z,20.32
2023-04-14T01:17:33.932Z,20.36
2023-04-14T01:20:22.941Z,20.58
2023-04-14T01:22:54.668Z,20.35
2023-04-14T01:25:48.330Z,20.54
2023-04-14T01:28:37.802Z,20.53
2023-04-14T01:31:20.059Z,20.47
2023-04-14T01:33:49.508Z,20.29
2023-04-14T01:36:22.796Z,20.28
2023-04-14T01:38:50.609Z,20.11
2023-04-14T01:41:17.802Z,20.06
2023-04-14T01:43:45.611Z,20.11
2023-04-14T01:46:14.711Z,20.19
2023-04-14T01:48:41.678Z,20.05
2023-04-14T01:51:08.761Z,20.13
2023-04-14T01:53:38.554Z,20.19
2023-04-14T01:56:05.634Z,20.08
2023-04-14T01:58:32.697Z,20.04
2023-04-14T02:00:59.869Z,20.05
2023-04-14T02:03:27.326Z,20.15
2023-04-14T02:05:54.224Z,20.19
2023-04-14T02:08:21.480Z,20.20
2023-04-14T02:10:49.332Z,20.30
2023-04-14T02:13:16.798Z,20.25
2023-04-14T02:15:43.542Z,20.24
2023-04-14T02:18:10.689Z,20.24
2023-04-14T02:20:44.660Z,20.26
2023-04-14T02:23:12.145Z,20.33
2023-04-14T02:25:41.507Z,20.44
2023-04-14T02:28:11.649Z,20.47
2023-04-14T02:30:39.725Z,20.54
2023-04-14T02:33:09.087Z,20.56
2023-04-14T02:35:43.204Z,20.69
2023-04-14T02:38:16.205Z,20.74
2023-04-14T02:40:43.958Z,20.73
2023-04-14T02:43:17.901Z,20.89
2023-04-14T02:45:48.871Z,20.80
2023-04-14T02:48:15.850Z,21.82
2023-04-14T02:50:45.623Z,21.01
2023-04-14T02:53:21.073Z,20.97
2023-04-14T02:55:49.381Z,20.81
2023-04-14T02:58:18.251Z,20.76
2023-04-14T03:00:44.866Z,20.79
2023-04-14T03:03:12.708Z,20.78
2023-04-14T03:05:41.031Z,20.73
2023-04-14T03:08:11.199Z,20.91
2023-04-14T03:10:39.822Z,21.90
2023-04-14T03:13:08.720Z,21.02
2023-04-14T03:15:36.194Z,20.92
2023-04-14T03:18:03.287Z,20.86
2023-04-14T03:20:30.379Z,20.92
2023-04-14T03:23:06.148Z,20.92
2023-04-14T03:25:39.067Z,20.99
2023-04-14T03:28:14.887Z,21.01
2023-04-14T03:30:47.854Z,21.04
2023-04-14T03:33:19.931Z,21.06
2023-04-14T03:35:47.214Z,20.88
2023-04-14T03:38:15.787Z,20.97
2023-04-14T03:40:44.303Z,20.86
2023-04-14T03:43:12.736Z,20.84
2023-04-14T03:45:43.218Z,20.91
2023-04-14T03:48:12.632Z,20.88
2023-04-14T03:50:46.442Z,20.85
2023-04-14T03:53:14.942Z,20.93
2023-04-14T03:55:42.695Z,20.84
2023-04-14T03:58:11.390Z,20.90
2023-04-14T04:00:39.593Z,20.78
2023-04-14T04:03:06.385Z,20.79
2023-04-14T04:05:38.615Z,20.93
2023-04-14T04:08:05.831Z,20.78
2023-04-14T04:10:34.049Z,20.84
2023-04-14T04:13:07.858Z,20.95
2023-04-14T04:15:34.572Z,20.79
2023-04-14T04:18:02.086Z,20.81
2023-04-14T04:20:29.603Z,20.77
2023-04-14T04:22:58.040Z,20.87
2023-04-14T04:25:24.593Z,20.77
2023-04-14T04:28:01.112Z,20.91
2023-04-14T04:30:28.628Z,20.92
2023-04-14T04:32:55.228Z,20.88
2023-04-14T04:35:22.252Z,20.92
2023-04-14T04:37:49.906Z,20.97
2023-04-14T04:40:17.019Z,20.96
2023-04-14T04:42:44.262Z,20.99
2023-04-14T04:45:21.233Z,21.17
2023-04-14T04:47:47.787Z,21.05
2023-04-14T04:50:14.311Z,21.06
2023-04-14T04:52:40.983Z,21.07
2023-04-14T04:55:07.573Z,21.12
2023-04-14T04:57:34.094Z,21.15
2023-04-14T05:00:00.665Z,21.21
2023-04-14T05:02:27.360Z,21.22
2023-04-14T05:04:54.176Z,21.31
2023-04-14T05:07:21.050Z,21.32
2023-04-14T05:09:47.531Z,21.35
2023-04-14T05:12:14.019Z,21.31
2023-04-14T05:14:40.474Z,21.35
2023-04-14T05:17:06.965Z,21.38
2023-04-14T05:19:33.435Z,21.39
2023-04-14T05:22:00.063Z,21.43
2023-04-14T05:24:27.383Z,21.49
2023-04-14T05:27:12.581Z,21.47
2023-04-14T05:29:40.399Z,21.54
2023-04-14T05:32:06.945Z,21.52
2023-04-14T05:34:33.466Z,21.49
2023-04-14T05:37:00.145Z,21.44
2023-04-14T05:39:27.255Z,21.43
2023-04-14T05:41:54.109Z,21.38
2023-04-14T05:44:20.606Z,21.38
2023-04-14T05:46:47.196Z,21.40
2023-04-14T05:49:13.711Z,21.44
2023-04-14T05:51:40.725Z,21.42
2023-04-14T05:54:07.206Z,21.42
2023-04-14T05:56:34.235Z,21.42
2023-04-14T05:59:01.510Z,21.37
2023-04-14T06:01:28.120Z,21.43
2023-04-14T06:03:54.944Z,21.44
2023-04-14T06:06:21.781Z,21.46
2023-04-14T06:08:48.253Z,21.51
2023-04-14T06:11:14.742Z,21.49
2023-04-14T06:13:41.339Z,21.49
2023-04-14T06:16:08.162Z,21.47
2023-04-14T06:18:34.761Z,21.46
2023-04-14T06:21:01.697Z,21.48
2023-04-14T06:23:28.456Z,21.52
2023-04-14T06:25:55.647Z,21.53
2023-04-14T06:28:24.230Z,21.55
2023-04-14T06:30:51.025Z,21.58
2023-04-14T06:33:17.779Z,21.58
2023-04-14T06:35:45.100Z,21.54
2023-04-14T06:38:11.663Z,21.54
2023-04-14T06:40:38.219Z,21.59
2023-04-14T06:43:06.185Z,21.61
2023-04-14T06:45:32.748Z,21.62
2023-04-14T06:47:59.369Z,21.69
2023-04-14T06:50:25.942Z,21.73
2023-04-14T06:52:52.503Z,21.70
2023-04-14T06:55:19.024Z,21.76
2023-04-14T06:57:45.630Z,21.76
2023-04-14T07:00:12.737Z,21.82
2023-04-14T07:02:39.429Z,21.89
2023-04-14T07:05:07.269Z,21.91
2023-04-14T07:07:37.467Z,22.08
2023-04-14T07:10:04.214Z,22.01
2023-04-14T07:12:30.873Z,22.00
2023-04-14T07:14:57.370Z,22.04
2023-04-14T07:17:23.945Z,22.04
2023-04-14T07:19:50.976Z,22.13
2023-04-14T07:22:17.559Z,22.11
2023-04-14T07:24:44.112Z,22.10
2023-04-14T07:27:16.839Z,22.05
2023-04-14T07:29:43.373Z,22.12
2023-04-14T07:32:09.963Z,22.15
2023-04-14T07:34:37.100Z,22.24
2023-04-14T07:37:03.594Z,22.24
2023-04-14T07:39:30.139Z,22.28
2023-04-14T07:41:58.837Z,22.23
2023-04-14T07:44:25.448Z,22.34
2023-04-14T07:46:52.005Z,22.34
2023-04-14T07:49:18.673Z,22.37
2023-04-14T07:51:45.176Z,22.38
2023-04-14T07:54:11.724Z,22.44
2023-04-14T07:56:38.223Z,22.51
2023-04-14T07:59:04.794Z,22.52
2023-04-14T08:01:31.606Z,22.51
2023-04-14T08:03:58.338Z,22.38
2023-04-14T08:06:26.768Z,22.29
2023-04-14T08:08:53.690Z,22.26
2023-04-14T08:11:20.212Z,22.13
2023-04-14T08:16:58.619Z,21.77
2023-04-14T08:19:25.254Z,21.55
2023-04-14T08:21:52.212Z,21.50
2023-04-14T08:24:18.791Z,21.36
2023-04-14T08:26:45.287Z,21.36
2023-04-14T08:29:11.882Z,21.54
2023-04-14T08:31:38.425Z,21.60
2023-04-14T08:34:04.965Z,21.47
2023-04-14T08:36:31.514Z,21.50
2023-04-14T08:39:00.138Z,21.34
2023-04-14T08:41:26.915Z,21.38
2023-04-14T08:43:53.565Z,21.27
2023-04-14T08:46:20.326Z,21.27
2023-04-14T08:48:50.378Z,21.20
2023-04-14T08:51:25.472Z,21.17
2023-04-14T08:53:53.568Z,21.19
2023-04-14T08:56:21.054Z,21.09
2023-04-14T08:58:48.121Z,21.13
2023-04-14T09:01:15.019Z,21.21
2023-04-14T09:03:42.211Z,21.21
2023-04-14T09:06:09.203Z,21.27
2023-04-14T09:08:36.229Z,21.31
2023-04-14T09:11:03.650Z,21.40
2023-04-14T09:13:31.031Z,21.35
2023-04-14T09:15:58.090Z,21.36
2023-04-14T09:18:25.354Z,21.29
2023-04-14T09:21:30.445Z,21.29
2023-04-14T09:23:41.791Z,21.18
2023-04-14T09:26:10.298Z,21.35
2023-04-14T09:28:37.363Z,21.28
2023-04-14T09:31:04.751Z,21.12
2023-04-14T09:33:31.669Z,21.32
2023-04-14T09:35:58.181Z,21.50
2023-04-14T09:38:33.548Z,21.69
2023-04-14T09:41:00.167Z,21.64
2023-04-14T09:43:27.375Z,21.66
2023-04-14T09:45:54.435Z,21.73
2023-04-14T09:48:21.566Z,21.72
2023-04-14T09:51:09.700Z,22.00
2023-04-14T09:53:37.588Z,21.85
2023-04-14T09:56:06.723Z,22.08
2023-04-14T09:58:38.218Z,22.20
2023-04-14T10:01:12.390Z,22.04
2023-04-14T10:03:44.190Z,22.16
2023-04-14T10:06:13.625Z,22.25
2023-04-14T10:08:44.322Z,22.09
2023-04-14T10:11:20.973Z,22.20
2023-04-14T10:13:52.426Z,22.02
2023-04-14T10:16:19.174Z,22.17
2023-04-14T10:18:46.641Z,22.13
2023-04-14T10:21:14.233Z,22.06
2023-04-14T10:23:41.475Z,22.19
2023-04-14T10:26:09.721Z,22.18
2023-04-14T10:28:38.122Z,22.25
2023-04-14T10:31:06.330Z,22.27
2023-04-14T10:33:33.250Z,22.30
2023-04-14T10:36:00.895Z,22.29
2023-04-14T10:38:44.007Z,22.45
2023-04-14T10:41:11.547Z,22.37
2023-04-14T10:43:39.603Z,22.33
2023-04-14T10:46:07.872Z,22.30
2023-04-14T10:48:38.955Z,22.26
2023-04-14T10:51:10.642Z,22.51
2023-04-14T10:53:38.769Z,22.33
2023-04-14T10:56:06.234Z,21.93
2023-04-14T10:58:34.667Z,22.15
2023-04-14T11:01:01.205Z,21.76
2023-04-14T11:03:31.194Z,22.26
2023-04-14T11:05:58.209Z,22.20
2023-04-14T11:08:27.066Z,22.26
2023-04-14T11:11:07.059Z,22.59
2023-04-14T11:13:34.595Z,22.31
2023-04-14T11:16:01.262Z,22.32
2023-04-14T11:18:27.816Z,22.38
2023-04-14T11:20:54.669Z,22.40
2023-04-14T11:23:27.681Z,22.42
2023-04-14T11:25:54.219Z,22.36
2023-04-14T11:28:32.401Z,22.37
2023-04-14T11:31:03.493Z,22.29
2023-04-14T11:33:34.238Z,23.06
2023-04-14T11:36:02.113Z,22.43
2023-04-14T11:38:28.997Z,22.05
2023-04-14T11:40:56.835Z,22.04
2023-04-14T11:43:24.142Z,21.91
2023-04-14T11:45:51.834Z,22.00
2023-04-14T11:48:19.989Z,21.90
2023-04-14T11:50:47.635Z,21.47
2023-04-14T11:53:17.827Z,21.71
2023-04-14T11:55:51.884Z,21.86
2023-04-14T11:58:26.486Z,21.81
2023-04-14T12:00:56.055Z,21.69
2023-04-14T12:06:15.314Z,21.89
2023-04-14T12:08:41.866Z,21.89
2023-04-14T12:11:13.450Z,22.06
2023-04-14T12:13:51.276Z,22.05
2023-04-14T12:16:18.372Z,21.95
2023-04-14T12:18:45.209Z,21.93
2023-04-14T12:21:17.274Z,22.04
2023-04-14T12:23:48.396Z,21.97
2023-04-14T12:26:14.818Z,22.98
2023-04-14T12:28:42.047Z,22.13
2023-04-14T12:31:09.672Z,21.95
2023-04-14T12:33:36.432Z,21.96
2023-04-14T12:36:13.102Z,22.22
2023-04-14T12:38:39.794Z,21.89
2023-04-14T12:41:06.300Z,21.63
2023-04-14T12:43:35.417Z,21.82
2023-04-14T12:46:07.717Z,21.88
2023-04-14T12:48:44.946Z,22.17
2023-04-14T12:51:16.424Z,22.05
2023-04-14T12:53:44.074Z,21.96
2023-04-14T12:56:16.335Z,21.82
2023-04-14T12:58:47.324Z,21.86
2023-04-14T13:01:18.105Z,22.00
2023-04-14T13:03:52.765Z,21.75
2023-04-14T13:06:20.915Z,21.63
2023-04-14T13:08:54.412Z,21.60
2023-04-14T13:11:22.141Z,21.83
2023-04-14T13:13:48.823Z,21.90
2023-04-14T13:16:18.241Z,21.93
2023-04-14T13:18:47.363Z,21.95
2023-04-14T13:21:13.938Z,21.97
2023-04-14T13:23:41.167Z,21.80
2023-04-14T13:26:07.910Z,21.77
2023-04-14T13:28:34.469Z,21.70
2023-04-14T13:31:01.118Z,21.77
2023-04-14T13:33:27.712Z,21.85
2023-04-14T13:35:55.736Z,21.97
2023-04-14T13:38:22.456Z,21.88
2023-04-14T13:40:48.953Z,21.97
2023-04-14T13:43:17.200Z,22.07
2023-04-14T13:45:43.759Z,22.20
2023-04-14T13:48:10.327Z,22.07
2023-04-14T13:50:36.816Z,22.13
2023-04-14T13:53:03.397Z,22.06
2023-04-14T13:55:29.952Z,21.97
2023-04-14T13:57:56.443Z,21.82
2023-04-14T14:00:22.967Z,21.98
2023-04-14T14:02:49.678Z,21.99
2023-04-14T14:05:16.432Z,22.02
2023-04-14T14:07:43.165Z,22.05
2023-04-14T14:10:10.878Z,22.01
2023-04-14T14:12:37.712Z,21.90
2023-04-14T14:15:05.497Z,22.01
2023-04-14T14:17:32.275Z,21.97
2023-04-14T14:19:59.042Z,21.94
2023-04-14T14:22:25.910Z,22.04
2023-04-14T14:24:52.486Z,22.05
2023-04-14T14:27:19.015Z,22.10
2023-04-14T14:29:45.538Z,22.03
2023-04-14T14:32:12.237Z,21.91
2023-04-14T14:34:41.689Z,21.93
2023-04-14T14:37:08.205Z,21.90
2023-04-14T14:39:34.749Z,21.93
2023-04-14T14:42:01.300Z,21.93
2023-04-14T14:44:28.038Z,21.90
2023-04-14T14:46:54.595Z,21.82
2023-04-14T14:49:21.545Z,21.89
2023-04-14T14:51:48.471Z,21.65
2023-04-14T14:54:15.233Z,21.74
2023-04-14T14:56:42.022Z,21.74
2023-04-14T14:59:08.605Z,21.75
2023-04-14T15:01:35.793Z,21.79
2023-04-14T15:04:02.926Z,21.69
2023-04-14T15:06:29.599Z,21.77
2023-04-14T15:08:56.348Z,21.77
2023-04-14T15:11:22.988Z,21.80
2023-04-14T15:13:49.525Z,21.74
2023-04-14T15:16:16.061Z,21.59
2023-04-14T15:18:43.048Z,21.62
2023-04-14T15:21:09.665Z,21.80
2023-04-14T15:23:39.506Z,21.71
2023-04-14T15:26:06.406Z,21.80
2023-04-14T15:28:32.950Z,21.82
2023-04-14T15:31:02.735Z,21.85
2023-04-14T15:33:29.763Z,21.82
2023-04-14T15:35:56.266Z,21.75
2023-04-14T15:38:22.883Z,21.77
2023-04-14T15:40:49.431Z,21.77
2023-04-14T15:43:18.670Z,21.74
2023-04-14T15:45:45.646Z,21.82
2023-04-14T15:48:12.302Z,21.81
2023-04-14T15:50:44.940Z,21.83
2023-04-14T15:53:12.167Z,21.81
2023-04-14T15:55:39.918Z,21.82
2023-04-14T15:58:06.769Z,21.79
2023-04-14T16:00:33.474Z,21.63
2023-04-14T16:03:02.003Z,21.58
2023-04-14T16:05:28.852Z,21.72
2023-04-14T16:07:56.047Z,21.66
2023-04-14T16:10:22.878Z,21.71
2023-04-14T16:12:50.433Z,21.75
2023-04-14T16:15:17.356Z,21.78
2023-04-14T16:17:44.176Z,21.53
2023-04-14T16:20:12.216Z,21.77
2023-04-14T16:22:38.993Z,21.86
2023-04-14T16:25:06.855Z,21.85
2023-04-14T16:27:33.996Z,21.83
2023-04-14T16:30:00.657Z,21.88
2023-04-14T16:32:27.467Z,21.81
2023-04-14T16:34:54.015Z,21.74
2023-04-14T16:37:21.296Z,21.57
2023-04-14T16:39:47.810Z,21.61
2023-04-14T16:42:18.590Z,21.66
2023-04-14T16:44:45.105Z,21.64
2023-04-14T16:47:11.591Z,21.53
2023-04-14T16:49:38.069Z,21.49
2023-04-14T16:52:04.557Z,21.53
2023-04-14T16:54:31.859Z,21.57
2023-04-14T16:56:58.345Z,21.69
2023-04-14T16:59:24.853Z,21.55
2023-04-14T17:01:51.635Z,21.59
2023-04-14T17:04:18.318Z,21.50
2023-04-14T17:06:45.741Z,21.48
2023-04-14T17:09:12.398Z,21.61
2023-04-14T17:11:39.221Z,21.71
2023-04-14T17:14:06.565Z,21.64
2023-04-14T17:16:33.260Z,21.66
2023-04-14T17:18:59.940Z,21.61
2023-04-14T17:21:26.585Z,21.59
2023-04-14T17:23:53.556Z,21.65
2023-04-14T17:26:20.479Z,21.64
2023-04-14T17:28:47.300Z,21.67
2023-04-14T17:31:14.218Z,21.71
2023-04-14T17:33:41.968Z,21.60
2023-04-14T17:36:14.112Z,21.79
2023-04-14T17:38:41.918Z,21.63
2023-04-14T17:41:09.941Z,21.69
2023-04-14T17:43:39.035Z,21.71
2023-04-14T17:46:06.315Z,21.73
2023-04-14T17:48:35.699Z,21.72
2023-04-14T17:51:02.719Z,21.67
2023-04-14T17:53:29.793Z,21.63
2023-04-14T17:55:56.935Z,21.58
2023-04-14T17:58:27.124Z,21.60
2023-04-14T18:00:53.777Z,21.50
2023-04-14T18:03:21.025Z,21.46
2023-04-14T18:05:48.279Z,21.46
2023-04-14T18:08:16.100Z,21.35
2023-04-14T18:10:45.556Z,21.37
2023-04-14T18:13:12.767Z,21.45
2023-04-14T18:15:41.186Z,21.49
2023-04-14T18:18:07.857Z,21.50
2023-04-14T18:20:34.446Z,21.63
2023-04-14T18:23:02.260Z,21.59
2023-04-14T18:26:26.251Z,21.64
2023-04-14T18:28:17.761Z,21.69
2023-04-14T18:30:44.269Z,21.61
2023-04-14T18:33:10.805Z,21.51
2023-04-14T18:35:40.390Z,21.63
2023-04-14T18:38:07.462Z,21.38
2023-04-14T18:40:37.912Z,21.63
2023-04-14T18:43:04.505Z,21.59
2023-04-14T18:45:31.142Z,21.48
2023-04-14T18:48:01.789Z,21.56
2023-04-14T18:50:32.500Z,21.69
2023-04-14T18:56:00.689Z,21.44
2023-04-14T18:58:29.302Z,21.37
2023-04-14T19:01:07.883Z,21.45
2023-04-14T19:03:34.441Z,21.29
2023-04-14T19:06:01.716Z,21.25
2023-04-14T19:08:28.423Z,21.32
2023-04-14T19:11:04.283Z,21.39
2023-04-14T19:13:37.440Z,21.27
2023-04-14T19:16:16.735Z,21.52
2023-04-14T19:18:46.395Z,21.54
2023-04-14T19:21:19.164Z,21.54
2023-04-14T19:23:45.749Z,21.49
2023-04-14T19:26:13.617Z,21.53
2023-04-14T19:28:42.720Z,21.47
2023-04-14T19:31:09.629Z,21.47
2023-04-14T19:33:36.146Z,21.48
2023-04-14T19:36:02.710Z,21.48
2023-04-14T19:38:29.261Z,21.51
2023-04-14T19:40:56.543Z,21.48
2023-04-14T19:43:23.117Z,21.40
2023-04-14T19:45:52.839Z,21.45
2023-04-14T19:48:23.959Z,21.46
2023-04-14T19:50:52.074Z,21.49
2023-04-14T19:53:19.638Z,21.49
2023-04-14T19:55:53.691Z,21.77
2023-04-14T19:58:21.427Z,21.54
2023-04-14T20:00:52.378Z,21.69
2023-04-14T20:03:19.981Z,21.53
2023-04-14T20:05:53.182Z,21.63
2023-04-14T20:08:20.772Z,21.39
2023-04-14T20:10:51.421Z,21.26
2023-04-14T20:13:22.485Z,21.36
2023-04-14T20:15:50.620Z,21.28
2023-04-14T20:18:18.550Z,21.15
2023-04-14T20:20:47.035Z,21.04
2023-04-14T20:23:14.334Z,21.20
2023-04-14T20:25:42.804Z,21.37
2023-04-14T20:28:09.923Z,21.38
2023-04-14T20:30:36.494Z,21.50
2023-04-14T20:33:04.569Z,21.29
2023-04-14T20:35:35.610Z,21.44
2023-04-14T20:38:02.551Z,21.55
2023-04-14T20:40:30.108Z,21.48
2023-04-14T20:43:00.196Z,21.42
2023-04-14T20:45:26.860Z,21.35
2023-04-14T20:47:53.575Z,21.30
2023-04-14T20:50:20.087Z,20.96
2023-04-14T20:52:46.706Z,20.75
2023-04-14T20:55:13.520Z,20.72
2023-04-14T21:00:47.643Z,20.90
2023-04-14T21:03:14.393Z,21.26
2023-04-14T21:05:41.248Z,21.29
2023-04-14T21:08:08.299Z,21.26
2023-04-14T21:10:35.642Z,21.15
2023-04-14T21:15:26.616Z,21.33
2023-04-14T21:16:09.139Z,21.43
2023-04-14T21:18:36.373Z,21.33
2023-04-14T21:21:04.849Z,21.51
2023-04-14T21:23:31.587Z,21.63
2023-04-14T21:25:59.809Z,21.60
2023-04-14T21:28:26.389Z,21.63
2023-04-14T21:30:55.846Z,21.63
2023-04-14T21:33:22.358Z,21.47
2023-04-14T21:35:49.553Z,21.39
2023-04-14T21:38:16.068Z,21.45
2023-04-14T21:40:43.306Z,21.58
2023-04-14T21:43:09.818Z,21.34
2023-04-14T21:45:36.806Z,21.30
2023-04-14T21:48:03.475Z,21.31
2023-04-14T21:50:31.904Z,21.28
2023-04-14T21:52:59.520Z,21.34
2023-04-14T21:55:26.029Z,21.21
2023-04-14T21:57:54.602Z,21.24
2023-04-14T22:00:21.541Z,21.31
2023-04-14T22:02:48.146Z,21.30
2023-04-14T22:05:14.903Z,21.38
2023-04-14T22:07:41.476Z,21.41
2023-04-14T22:10:08.340Z,21.43
2023-04-14T22:12:36.009Z,21.35
2023-04-14T22:15:03.935Z,21.71
2023-04-14T22:19:57.705Z,21.72
2023-04-14T22:22:24.410Z,21.47
2023-04-14T22:24:51.747Z,21.49
2023-04-14T22:27:18.228Z,21.54
2023-04-14T22:29:44.786Z,21.56
2023-04-14T22:32:11.825Z,21.61
2023-04-14T22:34:38.310Z,21.73
2023-04-14T22:37:04.844Z,21.64
2023-04-14T22:39:31.327Z,21.61
2023-04-14T22:41:57.820Z,21.40
2023-04-14T22:44:24.363Z,21.44
2023-04-14T22:46:50.876Z,21.59
2023-04-14T22:49:17.436Z,21.62
2023-04-14T22:51:44.919Z,21.62
2023-04-14T22:54:11.408Z,21.77
2023-04-14T22:56:37.960Z,21.91
2023-04-14T22:59:04.679Z,21.97
2023-04-14T23:01:31.431Z,21.97
2023-04-14T23:03:58.151Z,21.98
2023-04-14T23:06:24.802Z,21.95
2023-04-14T23:08:52.207Z,21.54
2023-04-14T23:11:21.804Z,21.85
2023-04-14T23:13:49.288Z,21.88
2023-04-14T23:16:19.963Z,21.96
2023-04-14T23:18:51.711Z,21.97
2023-04-14T23:21:22.266Z,22.00
2023-04-14T23:23:49.428Z,21.97
2023-04-14T23:26:17.259Z,21.99
2023-04-14T23:28:43.973Z,21.87
2023-04-14T23:31:10.907Z,21.93
2023-04-14T23:33:37.479Z,21.84
2023-04-14T23:36:04.138Z,21.89
2023-04-14T23:38:30.656Z,21.93
2023-04-14T23:40:59.000Z,21.98
2023-04-14T23:43:27.430Z,21.93
2023-04-14T23:45:54.051Z,21.86
2023-04-14T23:48:20.838Z,21.93
2023-04-14T23:51:00.978Z,21.95
2023-04-14T23:53:34.099Z,22.07
2023-04-14T23:56:00.881Z,22.04
2023-04-14T23:58:30.139Z,22.05
